sensor_id;sensor_type;location;lat;lon;timestamp;pressure;altitude;pressure_sealevel;temperature;humidity
29163;BME280;20331;53.144;8.208;2022-12-18T00:07:23;103115.94;;;-2.64;85.40
29163;BME280;20331;53.144;8.208;2022-12-18T00:17:45;103105.06;;;-2.76;85.03
29163;BME280;20331;53.144;8.208;2022-12-18T00:28:06;103110.28;;;-2.88;85.19
29163;BME280;20331;53.144;8.208;2022-12-18T00:38:28;103098.13;;;-2.93;85.21
29163;BME280;20331;53.144;8.208;2022-12-18T00:48:50;103102.63;;;-3.02;84.72
29163;BME280;20331;53.144;8.208;2022-12-18T00:59:11;103123.53;;;-3.05;83.97
29163;BME280;20331;53.144;8.208;2022-12-18T01:09:33;103122.59;;;-3.20;82.90
29163;BME280;20331;53.144;8.208;2022-12-18T01:19:54;103131.06;;;-3.46;83.05
29163;BME280;20331;53.144;8.208;2022-12-18T01:30:15;103139.53;;;-3.58;82.21
29163;BME280;20331;53.144;8.208;2022-12-18T01:40:37;103142.16;;;-3.57;81.77
29163;BME280;20331;53.144;8.208;2022-12-18T01:50:58;103151.69;;;-3.66;80.92
29163;BME280;20331;53.144;8.208;2022-12-18T02:01:21;103160.06;;;-3.67;81.39
29163;BME280;20331;53.144;8.208;2022-12-18T02:22:24;103148.53;;;-3.88;80.79
29163;BME280;20331;53.144;8.208;2022-12-18T02:32:48;103151.63;;;-4.05;81.15
29163;BME280;20331;53.144;8.208;2022-12-18T02:43:14;103135.22;;;-3.98;80.14
29163;BME280;20331;53.144;8.208;2022-12-18T02:53:38;103143.59;;;-3.99;79.78
29163;BME280;20331;53.144;8.208;2022-12-18T03:04:05;103137.94;;;-4.08;80.36
29163;BME280;20331;53.144;8.208;2022-12-18T03:14:30;103113.50;;;-4.08;80.03
29163;BME280;20331;53.144;8.208;2022-12-18T03:24:53;103137.59;;;-4.13;79.61
29163;BME280;20331;53.144;8.208;2022-12-18T03:35:16;103146.31;;;-4.21;79.51
29163;BME280;20331;53.144;8.208;2022-12-18T03:45:42;103139.34;;;-4.25;79.05
29163;BME280;20331;53.144;8.208;2022-12-18T03:56:08;103134.06;;;-4.28;79.71
29163;BME280;20331;53.144;8.208;2022-12-18T04:06:30;103134.94;;;-4.28;79.31
29163;BME280;20331;53.144;8.208;2022-12-18T04:16:52;103153.03;;;-4.46;78.78
29163;BME280;20331;53.144;8.208;2022-12-18T04:27:14;103132.41;;;-4.52;78.67
29163;BME280;20331;53.144;8.208;2022-12-18T04:37:35;103143.84;;;-4.57;79.53
29163;BME280;20331;53.144;8.208;2022-12-18T04:47:58;103152.41;;;-4.55;79.44
29163;BME280;20331;53.144;8.208;2022-12-18T04:58:20;103152.59;;;-4.52;78.80
29163;BME280;20331;53.144;8.208;2022-12-18T05:08:42;103164.47;;;-4.51;78.89
29163;BME280;20331;53.144;8.208;2022-12-18T05:19:03;103184.78;;;-4.50;78.69
29163;BME280;20331;53.144;8.208;2022-12-18T05:29:24;103162.25;;;-4.47;78.78
29163;BME280;20331;53.144;8.208;2022-12-18T05:39:46;103171.28;;;-4.50;78.76
29163;BME280;20331;53.144;8.208;2022-12-18T05:50:07;103168.44;;;-4.55;79.27
29163;BME280;20331;53.144;8.208;2022-12-18T06:00:29;103179.19;;;-4.57;79.39
29163;BME280;20331;53.144;8.208;2022-12-18T06:10:51;103173.59;;;-4.53;79.04
29163;BME280;20331;53.144;8.208;2022-12-18T06:21:13;103188.84;;;-4.52;78.51
29163;BME280;20331;53.144;8.208;2022-12-18T06:31:35;103187.97;;;-4.52;78.10
29163;BME280;20331;53.144;8.208;2022-12-18T06:41:56;103188.22;;;-4.61;77.38
29163;BME280;20331;53.144;8.208;2022-12-18T06:52:17;103195.69;;;-4.62;78.45
29163;BME280;20331;53.144;8.208;2022-12-18T07:02:39;103202.72;;;-4.58;78.30
29163;BME280;20331;53.144;8.208;2022-12-18T07:13:01;103202.91;;;-4.55;79.17
29163;BME280;20331;53.144;8.208;2022-12-18T07:23:23;103197.13;;;-4.54;78.10
29163;BME280;20331;53.144;8.208;2022-12-18T07:33:44;103199.84;;;-4.51;78.52
29163;BME280;20331;53.144;8.208;2022-12-18T07:44:06;103180.97;;;-4.56;78.16
29163;BME280;20331;53.144;8.208;2022-12-18T07:54:29;103187.47;;;-4.60;78.79
29163;BME280;20331;53.144;8.208;2022-12-18T08:04:50;103177.00;;;-4.53;78.99
29163;BME280;20331;53.144;8.208;2022-12-18T08:15:12;103170.16;;;-4.42;79.33
29163;BME280;20331;53.144;8.208;2022-12-18T08:25:33;103172.50;;;-4.32;79.56
29163;BME280;20331;53.144;8.208;2022-12-18T08:35:54;103159.28;;;-4.17;79.09
29163;BME280;20331;53.144;8.208;2022-12-18T08:46:16;103174.16;;;-4.08;79.40
29163;BME280;20331;53.144;8.208;2022-12-18T08:56:38;103169.66;;;-3.87;80.06
29163;BME280;20331;53.144;8.208;2022-12-18T09:07:00;103198.09;;;-3.65;79.79
29163;BME280;20331;53.144;8.208;2022-12-18T09:17:21;103202.78;;;-3.45;79.37
29163;BME280;20331;53.144;8.208;2022-12-18T09:27:43;103203.88;;;-3.29;80.50
29163;BME280;20331;53.144;8.208;2022-12-18T09:38:08;103189.09;;;-3.10;79.23
29163;BME280;20331;53.144;8.208;2022-12-18T09:48:32;103207.16;;;-2.90;80.42
29163;BME280;20331;53.144;8.208;2022-12-18T09:58:57;103196.22;;;-2.76;79.80
29163;BME280;20331;53.144;8.208;2022-12-18T10:30:04;103151.88;;;-2.29;79.21
29163;BME280;20331;53.144;8.208;2022-12-18T10:40:30;103138.69;;;-2.09;79.77
29163;BME280;20331;53.144;8.208;2022-12-18T10:50:51;103138.34;;;-1.86;80.64
29163;BME280;20331;53.144;8.208;2022-12-18T11:12:18;103102.97;;;-1.54;80.64
29163;BME280;20331;53.144;8.208;2022-12-18T11:22:39;103087.47;;;-1.44;79.58
29163;BME280;20331;53.144;8.208;2022-12-18T11:43:33;103049.44;;;-1.12;79.71
29163;BME280;20331;53.144;8.208;2022-12-18T11:53:58;103040.16;;;-0.95;80.23
29163;BME280;20331;53.144;8.208;2022-12-18T12:25:19;102997.28;;;-0.73;79.62
29163;BME280;20331;53.144;8.208;2022-12-18T12:35:44;102995.75;;;-0.69;79.85
29163;BME280;20331;53.144;8.208;2022-12-18T12:46:17;102969.72;;;-0.65;80.36
29163;BME280;20331;53.144;8.208;2022-12-18T12:56:45;102958.25;;;-0.57;79.68
29163;BME280;20331;53.144;8.208;2022-12-18T13:49:39;102891.16;;;-0.43;79.03
29163;BME280;20331;53.144;8.208;2022-12-18T14:10:43;102862.06;;;-0.50;79.06
29163;BME280;20331;53.144;8.208;2022-12-18T14:32:05;102850.94;;;-0.52;78.89
29163;BME280;20331;53.144;8.208;2022-12-18T14:42:32;102854.84;;;-0.58;78.11
29163;BME280;20331;53.144;8.208;2022-12-18T14:52:54;102832.66;;;-0.62;78.44
29163;BME280;20331;53.144;8.208;2022-12-18T15:03:17;102813.75;;;-0.67;78.41
29163;BME280;20331;53.144;8.208;2022-12-18T15:13:40;102779.75;;;-0.69;79.10
29163;BME280;20331;53.144;8.208;2022-12-18T15:24:02;102746.06;;;-0.65;78.46
29163;BME280;20331;53.144;8.208;2022-12-18T15:34:24;102733.38;;;-0.65;78.55
29163;BME280;20331;53.144;8.208;2022-12-18T15:44:46;102728.34;;;-0.64;78.82
29163;BME280;20331;53.144;8.208;2022-12-18T15:55:10;102744.78;;;-0.57;78.24
29163;BME280;20331;53.144;8.208;2022-12-18T16:05:50;102728.06;;;-0.52;77.76
29163;BME280;20331;53.144;8.208;2022-12-18T16:16:12;102702.03;;;-0.47;76.61
29163;BME280;20331;53.144;8.208;2022-12-18T16:26:33;102674.13;;;-0.45;77.37
29163;BME280;20331;53.144;8.208;2022-12-18T16:36:59;102658.16;;;-0.43;76.34
29163;BME280;20331;53.144;8.208;2022-12-18T16:47:25;102643.78;;;-0.42;76.21
29163;BME280;20331;53.144;8.208;2022-12-18T16:57:47;102642.16;;;-0.40;77.07
29163;BME280;20331;53.144;8.208;2022-12-18T17:08:08;102611.91;;;-0.34;76.54
29163;BME280;20331;53.144;8.208;2022-12-18T17:18:29;102607.81;;;-0.31;76.45
29163;BME280;20331;53.144;8.208;2022-12-18T17:28:51;102597.94;;;-0.25;75.71
29163;BME280;20331;53.144;8.208;2022-12-18T17:39:15;102571.00;;;-0.20;76.22
29163;BME280;20331;53.144;8.208;2022-12-18T17:49:37;102556.06;;;-0.12;75.50
29163;BME280;20331;53.144;8.208;2022-12-18T17:59:59;102551.09;;;-0.09;75.04
29163;BME280;20331;53.144;8.208;2022-12-18T18:10:20;102535.31;;;-0.02;75.10
29163;BME280;20331;53.144;8.208;2022-12-18T18:20:42;102506.50;;;-0.01;74.38
29163;BME280;20331;53.144;8.208;2022-12-18T18:31:07;102522.69;;;0.01;74.48
29163;BME280;20331;53.144;8.208;2022-12-18T18:41:29;102489.16;;;0.11;73.52
29163;BME280;20331;53.144;8.208;2022-12-18T18:51:51;102502.44;;;0.25;72.33
29163;BME280;20331;53.144;8.208;2022-12-18T19:02:13;102485.69;;;0.31;72.24
29163;BME280;20331;53.144;8.208;2022-12-18T19:12:34;102497.06;;;0.39;72.21
29163;BME280;20331;53.144;8.208;2022-12-18T19:23:14;102484.44;;;0.42;72.12
29163;BME280;20331;53.144;8.208;2022-12-18T19:33:36;102467.66;;;0.47;71.30
29163;BME280;20331;53.144;8.208;2022-12-18T19:44:04;102476.34;;;0.52;71.11
29163;BME280;20331;53.144;8.208;2022-12-18T19:54:28;102483.28;;;0.56;70.09
29163;BME280;20331;53.144;8.208;2022-12-18T20:04:51;102475.50;;;0.53;72.26
29163;BME280;20331;53.144;8.208;2022-12-18T20:15:12;102457.00;;;0.57;70.91
29163;BME280;20331;53.144;8.208;2022-12-18T20:25:33;102481.75;;;0.61;70.90
29163;BME280;20331;53.144;8.208;2022-12-18T20:35:59;102460.47;;;0.59;70.84
29163;BME280;20331;53.144;8.208;2022-12-18T20:46:22;102464.88;;;0.63;71.31
29163;BME280;20331;53.144;8.208;2022-12-18T20:56:44;102446.22;;;0.64;72.06
29163;BME280;20331;53.144;8.208;2022-12-18T21:07:06;102439.50;;;0.66;72.58
29163;BME280;20331;53.144;8.208;2022-12-18T21:17:27;102415.78;;;0.67;71.78
29163;BME280;20331;53.144;8.208;2022-12-18T21:27:50;102415.78;;;0.67;70.67
29163;BME280;20331;53.144;8.208;2022-12-18T21:38:12;102411.03;;;0.76;71.84
29163;BME280;20331;53.144;8.208;2022-12-18T21:48:34;102401.53;;;0.72;72.24
29163;BME280;20331;53.144;8.208;2022-12-18T21:58:58;102411.22;;;0.82;72.39
29163;BME280;20331;53.144;8.208;2022-12-18T22:09:20;102395.28;;;0.88;72.51
29163;BME280;20331;53.144;8.208;2022-12-18T22:19:42;102376.03;;;0.96;70.20
29163;BME280;20331;53.144;8.208;2022-12-18T22:30:04;102362.53;;;0.98;70.57
29163;BME280;20331;53.144;8.208;2022-12-18T22:40:26;102346.69;;;1.07;71.15
29163;BME280;20331;53.144;8.208;2022-12-18T22:50:47;102338.44;;;1.16;71.77
29163;BME280;20331;53.144;8.208;2022-12-18T23:01:18;102335.16;;;1.18;72.16
29163;BME280;20331;53.144;8.208;2022-12-18T23:11:40;102315.72;;;1.22;72.21
29163;BME280;20331;53.144;8.208;2022-12-18T23:22:01;102308.31;;;1.29;72.74
29163;BME280;20331;53.144;8.208;2022-12-18T23:32:30;102282.06;;;1.32;73.23
29163;BME280;20331;53.144;8.208;2022-12-18T23:42:53;102267.72;;;1.35;72.54
29163;BME280;20331;53.144;8.208;2022-12-18T23:53:14;102256.94;;;1.44;73.12
